Time;durP1;ratioP1;P1;durP2;ratioP2;P2;SDS_P1;SDS_P2;PMS_P1;PMS_P2;Temp;Humidity;BMP_temperature;BMP_pressure;BME280_temperature;BME280_humidity;BME280_pressure;Samples;Min_cycle;Max_cycle;Signal;HPM_P1;HPM_P2
2021/07/20 00:00:37;;;;;;;22.67;9.75;;;;;;;;;;4974362;28;20054;-71
2021/07/20 00:03:06;;;;;;;20.75;9.45;;;;;;;;;;4984056;28;20437;-71
2021/07/20 00:05:32;;;;;;;21.13;9.93;;;;;;;;;;4968555;28;20585;-71
2021/07/20 00:07:59;;;;;;;19.55;9.30;;;;;;;;;;4973779;28;20041;-71
2021/07/20 00:10:27;;;;;;;20.48;9.02;;;;;;;;;;4980483;28;20110;-70
2021/07/20 00:12:53;;;;;;;21.23;10.02;;;;;;;;;;4969466;28;20019;-71
2021/07/20 00:15:20;;;;;;;22.05;9.73;;;;;;;;;;4977395;28;20084;-71
2021/07/20 00:17:48;;;;;;;20.88;9.43;;;;;;;;;;4972399;28;20054;-71
2021/07/20 00:20:15;;;;;;;18.70;9.00;;;;;;;;;;4970234;28;20102;-71
2021/07/20 00:22:42;;;;;;;21.55;9.25;;;;;;;;;;4982212;28;20027;-71
2021/07/20 00:25:10;;;;;;;22.60;9.23;;;;;;;;;;4976277;28;20374;-71
2021/07/20 00:27:37;;;;;;;21.55;8.95;;;;;;;;;;4979949;28;20045;-69
2021/07/20 00:30:03;;;;;;;29.48;9.93;;;;;;;;;;4978700;28;20087;-69
2021/07/20 00:32:29;;;;;;;26.30;10.75;;;;;;;;;;4974791;28;20033;-69
2021/07/20 00:34:55;;;;;;;23.40;10.13;;;;;;;;;;4977710;28;20117;-69
2021/07/20 00:37:21;;;;;;;20.95;9.38;;;;;;;;;;4972954;28;20065;-70
2021/07/20 00:39:48;;;;;;;23.10;10.18;;;;;;;;;;4977741;28;20030;-70
2021/07/20 00:42:14;;;;;;;23.20;9.65;;;;;;;;;;4984508;28;20053;-70
2021/07/20 00:44:40;;;;;;;22.05;10.23;;;;;;;;;;4978449;28;20105;-70
2021/07/20 00:47:06;;;;;;;24.15;10.38;;;;;;;;;;4974323;28;20022;-70
2021/07/20 00:49:32;;;;;;;21.90;8.85;;;;;;;;;;4984705;28;20034;-70
2021/07/20 00:51:58;;;;;;;22.20;9.23;;;;;;;;;;4975058;28;20029;-70
2021/07/20 00:54:25;;;;;;;21.55;9.80;;;;;;;;;;4976628;28;20396;-70
2021/07/20 00:56:51;;;;;;;22.83;9.95;;;;;;;;;;4980872;28;20129;-70
2021/07/20 00:59:18;;;;;;;19.30;9.43;;;;;;;;;;4978973;28;20370;-70
2021/07/20 01:01:44;;;;;;;24.50;9.85;;;;;;;;;;4979555;28;20062;-70
2021/07/20 01:04:10;;;;;;;23.33;9.77;;;;;;;;;;4977400;28;20049;-70
2021/07/20 01:06:36;;;;;;;20.33;9.25;;;;;;;;;;4977741;28;20053;-70
2021/07/20 01:09:03;;;;;;;21.65;10.10;;;;;;;;;;4977076;28;20048;-70
2021/07/20 01:11:32;;;;;;;19.23;8.70;;;;;;;;;;4982178;28;20032;-70
2021/07/20 01:13:58;;;;;;;21.35;8.52;;;;;;;;;;4975148;28;20038;-70
2021/07/20 01:16:25;;;;;;;24.25;9.65;;;;;;;;;;4977397;28;20058;-71
2021/07/20 01:18:51;;;;;;;23.10;9.20;;;;;;;;;;4975562;28;20087;-70
2021/07/20 01:21:17;;;;;;;21.15;9.23;;;;;;;;;;4977544;28;20062;-70
2021/07/20 01:23:46;;;;;;;22.23;9.43;;;;;;;;;;4983303;28;20034;-70
2021/07/20 01:26:13;;;;;;;21.77;9.60;;;;;;;;;;4979753;28;20054;-70
2021/07/20 01:28:42;;;;;;;19.25;9.10;;;;;;;;;;4980649;28;20027;-70
2021/07/20 01:31:13;;;;;;;21.23;9.53;;;;;;;;;;4977298;28;20077;-70
2021/07/20 01:33:44;;;;;;;25.33;10.38;;;;;;;;;;4983059;28;20215;-70
2021/07/20 01:36:10;;;;;;;26.52;9.43;;;;;;;;;;4978809;28;20140;-70
2021/07/20 01:38:37;;;;;;;23.70;9.82;;;;;;;;;;4981446;28;20046;-70
2021/07/20 01:41:06;;;;;;;22.30;9.73;;;;;;;;;;4981064;28;20030;-70
2021/07/20 01:43:33;;;;;;;23.13;9.27;;;;;;;;;;4979467;28;20110;-70
2021/07/20 01:46:00;;;;;;;22.98;9.73;;;;;;;;;;4982581;28;20057;-70
2021/07/20 01:48:29;;;;;;;24.05;9.32;;;;;;;;;;4981083;28;20022;-70
2021/07/20 01:50:56;;;;;;;23.23;9.82;;;;;;;;;;4976284;28;20168;-70
2021/07/20 01:53:22;;;;;;;21.23;10.02;;;;;;;;;;4977320;28;20026;-70
2021/07/20 01:55:48;;;;;;;21.88;10.48;;;;;;;;;;4986077;28;20390;-70
2021/07/20 01:58:14;;;;;;;22.02;9.63;;;;;;;;;;4981634;28;20045;-70
2021/07/20 02:00:41;;;;;;;23.58;9.82;;;;;;;;;;4980458;28;20038;-70
2021/07/20 02:03:21;;;;;;;25.00;9.75;;;;;;;;;;4984921;28;20026;-70
2021/07/20 02:08:36;;;;;;;22.48;10.10;;;;;;;;;;4983905;28;20271;-70
2021/07/20 02:11:07;;;;;;;25.77;10.63;;;;;;;;;;4990252;28;20110;-70
2021/07/20 02:13:42;;;;;;;21.27;10.43;;;;;;;;;;4980394;28;20516;-69
2021/07/20 02:16:10;;;;;;;22.67;10.45;;;;;;;;;;4976526;28;20042;-70
2021/07/20 02:18:36;;;;;;;27.27;10.50;;;;;;;;;;4981299;28;20034;-70
2021/07/20 02:21:07;;;;;;;24.95;10.95;;;;;;;;;;4984910;28;20035;-70
2021/07/20 02:23:33;;;;;;;27.90;11.07;;;;;;;;;;4981248;28;20018;-70
2021/07/20 02:26:00;;;;;;;24.10;12.07;;;;;;;;;;4982199;28;20041;-70
2021/07/20 02:28:26;;;;;;;27.83;11.98;;;;;;;;;;4977550;28;20081;-71
2021/07/20 02:30:53;;;;;;;26.40;11.00;;;;;;;;;;4992261;28;20037;-71
2021/07/20 02:33:22;;;;;;;25.95;11.50;;;;;;;;;;4982081;28;20023;-70
2021/07/20 02:35:52;;;;;;;31.08;11.52;;;;;;;;;;4975293;28;20050;-70
2021/07/20 02:38:22;;;;;;;32.15;12.40;;;;;;;;;;4978563;28;20413;-70
2021/07/20 02:40:49;;;;;;;30.38;11.55;;;;;;;;;;4986532;28;20106;-70
2021/07/20 02:43:17;;;;;;;30.77;12.07;;;;;;;;;;4976783;28;20026;-70
2021/07/20 02:45:44;;;;;;;27.95;12.43;;;;;;;;;;4990779;28;20063;-70
2021/07/20 02:48:11;;;;;;;32.80;12.95;;;;;;;;;;4978122;28;20141;-70
2021/07/20 02:50:37;;;;;;;35.83;12.77;;;;;;;;;;4981804;28;20037;-70
2021/07/20 02:53:04;;;;;;;31.15;11.50;;;;;;;;;;4979567;28;20023;-70
2021/07/20 02:55:31;;;;;;;29.50;12.45;;;;;;;;;;4978619;28;20441;-70
2021/07/20 02:57:58;;;;;;;27.33;11.30;;;;;;;;;;4971409;28;20050;-70
2021/07/20 03:00:25;;;;;;;29.98;11.40;;;;;;;;;;4972884;28;20031;-70
2021/07/20 03:02:51;;;;;;;29.02;11.90;;;;;;;;;;4986702;28;20035;-70
2021/07/20 03:05:18;;;;;;;29.33;12.10;;;;;;;;;;4979735;28;20027;-70
2021/07/20 03:07:57;;;;;;;32.65;12.02;;;;;;;;;;4974250;28;20041;-70
2021/07/20 03:10:25;;;;;;;28.17;12.03;;;;;;;;;;4973216;28;20027;-71
2021/07/20 03:12:53;;;;;;;33.13;12.00;;;;;;;;;;4979635;28;20102;-70
2021/07/20 03:15:19;;;;;;;23.65;11.30;;;;;;;;;;4982862;28;20034;-70
2021/07/20 03:17:46;;;;;;;26.85;11.05;;;;;;;;;;4981092;28;20030;-70
2021/07/20 03:20:13;;;;;;;26.23;10.65;;;;;;;;;;4983529;28;20493;-70
2021/07/20 03:22:41;;;;;;;29.55;11.45;;;;;;;;;;4977485;28;20022;-70
2021/07/20 03:25:09;;;;;;;24.65;11.52;;;;;;;;;;4989349;28;20030;-70
2021/07/20 03:27:37;;;;;;;28.20;11.18;;;;;;;;;;4980451;28;20109;-70
2021/07/20 03:30:04;;;;;;;26.73;10.52;;;;;;;;;;4980146;28;20022;-70
2021/07/20 03:32:30;;;;;;;26.88;10.98;;;;;;;;;;4979916;28;20542;-70
2021/07/20 03:34:57;;;;;;;21.60;10.25;;;;;;;;;;4980637;28;20057;-70
2021/07/20 03:37:24;;;;;;;27.15;11.10;;;;;;;;;;4976552;28;20552;-70
2021/07/20 03:39:55;;;;;;;28.48;11.07;;;;;;;;;;4976997;28;20027;-70
2021/07/20 03:42:21;;;;;;;24.45;10.85;;;;;;;;;;4977036;28;20029;-70
2021/07/20 03:44:48;;;;;;;27.13;11.38;;;;;;;;;;4984619;28;20027;-70
2021/07/20 03:47:16;;;;;;;29.88;12.10;;;;;;;;;;4974874;28;20045;-70
2021/07/20 03:49:42;;;;;;;26.95;12.25;;;;;;;;;;4978546;28;20033;-70
2021/07/20 03:52:08;;;;;;;23.42;11.07;;;;;;;;;;4977009;28;20052;-70
2021/07/20 03:54:35;;;;;;;28.08;11.48;;;;;;;;;;4979300;28;20109;-69
2021/07/20 03:57:02;;;;;;;27.90;11.40;;;;;;;;;;4969306;28;20049;-70
2021/07/20 03:59:28;;;;;;;26.20;11.13;;;;;;;;;;4978415;28;20034;-70
2021/07/20 04:01:56;;;;;;;28.52;12.20;;;;;;;;;;4977276;28;20450;-71
2021/07/20 04:04:23;;;;;;;28.98;11.65;;;;;;;;;;4978433;28;20084;-70
2021/07/20 04:06:49;;;;;;;27.52;11.40;;;;;;;;;;4986218;28;20527;-70
2021/07/20 04:09:16;;;;;;;26.90;11.30;;;;;;;;;;4982672;28;20113;-70
2021/07/20 04:11:43;;;;;;;24.00;11.73;;;;;;;;;;4985252;28;20068;-70
2021/07/20 04:14:10;;;;;;;27.83;12.95;;;;;;;;;;4986141;28;20041;-70
2021/07/20 04:16:37;;;;;;;25.77;11.73;;;;;;;;;;4977236;28;20034;-70
2021/07/20 04:19:04;;;;;;;29.33;12.02;;;;;;;;;;4979712;28;20019;-70
2021/07/20 04:21:30;;;;;;;28.02;11.77;;;;;;;;;;4984371;28;20493;-70
2021/07/20 04:23:56;;;;;;;27.77;12.50;;;;;;;;;;4985342;28;20497;-70
2021/07/20 04:26:23;;;;;;;28.80;12.48;;;;;;;;;;4983289;28;20022;-70
2021/07/20 04:28:49;;;;;;;27.92;12.68;;;;;;;;;;4982655;28;20034;-70
2021/07/20 04:31:16;;;;;;;30.13;12.30;;;;;;;;;;4982566;28;20030;-70
2021/07/20 04:33:45;;;;;;;28.88;11.13;;;;;;;;;;4980821;28;20119;-70
2021/07/20 04:36:12;;;;;;;28.45;12.77;;;;;;;;;;4983545;28;20132;-70
2021/07/20 04:38:38;;;;;;;29.27;11.35;;;;;;;;;;4986312;28;20027;-71
2021/07/20 04:41:04;;;;;;;26.00;12.02;;;;;;;;;;4973636;28;20054;-70
2021/07/20 04:43:31;;;;;;;37.55;11.68;;;;;;;;;;4981040;28;20102;-70
2021/07/20 04:45:57;;;;;;;26.33;11.18;;;;;;;;;;4984162;28;20041;-70
2021/07/20 04:48:24;;;;;;;27.70;12.15;;;;;;;;;;4976085;28;20027;-71
2021/07/20 04:50:51;;;;;;;29.33;11.52;;;;;;;;;;4980813;28;20041;-69
2021/07/20 04:53:17;;;;;;;27.48;11.18;;;;;;;;;;4981610;28;20041;-69
2021/07/20 04:55:44;;;;;;;29.70;12.15;;;;;;;;;;4974913;28;20494;-70
2021/07/20 04:58:10;;;;;;;24.70;10.88;;;;;;;;;;4979288;28;20510;-70
2021/07/20 05:00:36;;;;;;;27.27;11.63;;;;;;;;;;4978720;28;20053;-70
2021/07/20 05:03:03;;;;;;;23.63;10.65;;;;;;;;;;4978473;28;20076;-70
2021/07/20 05:05:30;;;;;;;26.23;11.80;;;;;;;;;;4973656;28;20191;-70
2021/07/20 05:07:57;;;;;;;26.17;11.43;;;;;;;;;;4987234;28;20471;-70
2021/07/20 05:10:23;;;;;;;30.33;12.10;;;;;;;;;;4979997;28;20084;-71
2021/07/20 05:12:49;;;;;;;28.08;12.02;;;;;;;;;;4978677;28;20030;-70
2021/07/20 05:15:19;;;;;;;29.38;11.23;;;;;;;;;;4977290;28;20073;-70
2021/07/20 05:17:45;;;;;;;25.35;11.18;;;;;;;;;;4974015;28;20035;-71
2021/07/20 05:20:18;;;;;;;27.75;12.07;;;;;;;;;;4979347;28;20023;-70
2021/07/20 05:22:44;;;;;;;24.60;11.32;;;;;;;;;;4971396;28;20038;-71
2021/07/20 05:25:12;;;;;;;27.98;11.57;;;;;;;;;;4974522;28;20022;-70
2021/07/20 05:27:43;;;;;;;23.20;12.07;;;;;;;;;;4974937;28;20367;-71
2021/07/20 05:30:09;;;;;;;28.52;11.07;;;;;;;;;;4972556;28;20030;-71
2021/07/20 05:32:37;;;;;;;26.23;12.15;;;;;;;;;;4972756;28;20050;-70
2021/07/20 05:35:04;;;;;;;27.15;12.05;;;;;;;;;;4983388;28;20134;-70
2021/07/20 05:37:34;;;;;;;30.23;12.15;;;;;;;;;;4975059;28;20023;-71
2021/07/20 05:40:01;;;;;;;26.92;11.52;;;;;;;;;;4975301;28;20015;-70
2021/07/20 05:42:28;;;;;;;28.75;12.65;;;;;;;;;;4972358;28;20033;-70
2021/07/20 05:44:54;;;;;;;30.35;12.15;;;;;;;;;;4968770;28;20035;-69
2021/07/20 05:47:21;;;;;;;24.83;11.02;;;;;;;;;;4980084;28;20062;-70
2021/07/20 05:49:47;;;;;;;26.52;12.27;;;;;;;;;;4979299;28;20039;-71
2021/07/20 05:52:14;;;;;;;24.73;11.65;;;;;;;;;;4981395;28;20037;-71
2021/07/20 05:54:41;;;;;;;27.95;12.52;;;;;;;;;;4979677;28;20033;-71
2021/07/20 05:57:08;;;;;;;25.90;11.75;;;;;;;;;;4985456;28;20446;-71
2021/07/20 05:59:35;;;;;;;29.35;12.75;;;;;;;;;;4971724;28;20031;-71
2021/07/20 06:02:01;;;;;;;23.60;11.23;;;;;;;;;;4984107;28;21690;-72
2021/07/20 06:04:27;;;;;;;25.80;11.90;;;;;;;;;;4978347;28;20023;-71
2021/07/20 06:06:53;;;;;;;23.40;11.13;;;;;;;;;;4977499;28;20046;-70
2021/07/20 06:09:21;;;;;;;25.58;10.60;;;;;;;;;;4977559;28;20570;-71
2021/07/20 06:11:47;;;;;;;26.65;11.25;;;;;;;;;;4981527;28;20109;-71
2021/07/20 06:14:16;;;;;;;24.40;11.57;;;;;;;;;;4983607;28;20029;-71
2021/07/20 06:16:44;;;;;;;23.98;11.25;;;;;;;;;;4978645;28;20072;-71
2021/07/20 06:19:10;;;;;;;25.88;11.50;;;;;;;;;;4983286;28;20533;-71
2021/07/20 06:21:40;;;;;;;20.95;10.75;;;;;;;;;;4980694;28;20489;-71
2021/07/20 06:24:06;;;;;;;26.35;11.13;;;;;;;;;;4971956;28;20030;-71
2021/07/20 06:26:34;;;;;;;28.42;12.40;;;;;;;;;;4977267;28;20026;-71
2021/07/20 06:29:01;;;;;;;24.98;11.10;;;;;;;;;;4971932;28;20023;-70
2021/07/20 06:31:28;;;;;;;26.60;11.52;;;;;;;;;;4976801;28;20079;-70
2021/07/20 06:33:55;;;;;;;26.15;10.80;;;;;;;;;;4975624;28;20517;-70
2021/07/20 06:36:22;;;;;;;24.80;9.65;;;;;;;;;;4978333;28;20486;-70
2021/07/20 06:38:48;;;;;;;20.00;9.23;;;;;;;;;;4971786;28;20080;-71
2021/07/20 06:41:16;;;;;;;23.15;10.20;;;;;;;;;;4978793;28;20481;-70
2021/07/20 06:43:43;;;;;;;19.83;9.18;;;;;;;;;;4974483;28;20486;-70
2021/07/20 06:46:09;;;;;;;24.13;10.10;;;;;;;;;;4977171;28;20553;-70
2021/07/20 06:48:37;;;;;;;22.65;10.05;;;;;;;;;;4981872;28;20031;-71
2021/07/20 06:51:04;;;;;;;25.63;9.23;;;;;;;;;;4973432;28;20038;-70
2021/07/20 06:53:30;;;;;;;21.35;9.93;;;;;;;;;;4983404;28;20199;-71
2021/07/20 06:56:01;;;;;;;20.83;8.68;;;;;;;;;;4983143;28;20498;-70
2021/07/20 06:58:28;;;;;;;23.70;8.23;;;;;;;;;;4981822;28;20059;-71
2021/07/20 07:00:55;;;;;;;18.63;8.15;;;;;;;;;;4978540;28;20031;-70
2021/07/20 07:03:23;;;;;;;16.92;8.00;;;;;;;;;;4976470;28;20030;-71
2021/07/20 07:05:49;;;;;;;16.75;7.50;;;;;;;;;;4975860;28;20047;-70
2021/07/20 07:08:16;;;;;;;16.08;6.85;;;;;;;;;;4977247;28;20490;-70
2021/07/20 07:10:43;;;;;;;18.13;6.63;;;;;;;;;;4976774;28;20143;-71
2021/07/20 07:13:10;;;;;;;12.55;5.90;;;;;;;;;;4974982;28;20022;-70
2021/07/20 07:15:37;;;;;;;16.15;6.88;;;;;;;;;;4974270;28;20035;-70
2021/07/20 07:18:03;;;;;;;16.38;6.68;;;;;;;;;;4977594;28;20030;-70
2021/07/20 07:20:29;;;;;;;15.05;6.68;;;;;;;;;;4977728;28;20169;-70
2021/07/20 07:22:55;;;;;;;16.67;6.57;;;;;;;;;;4975557;28;20022;-70
2021/07/20 07:25:22;;;;;;;15.93;5.97;;;;;;;;;;4974737;28;20347;-70
2021/07/20 07:27:50;;;;;;;19.10;7.00;;;;;;;;;;4981703;28;20496;-70
2021/07/20 07:30:17;;;;;;;12.82;5.80;;;;;;;;;;4975155;28;20081;-70
2021/07/20 07:32:43;;;;;;;15.68;6.97;;;;;;;;;;4974635;28;20031;-70
2021/07/20 07:35:10;;;;;;;14.10;5.72;;;;;;;;;;4978863;28;20042;-70
2021/07/20 07:37:38;;;;;;;18.00;5.90;;;;;;;;;;4977318;28;20040;-70
2021/07/20 07:40:06;;;;;;;17.25;6.57;;;;;;;;;;4978434;28;20057;-70
2021/07/20 07:42:33;;;;;;;15.00;6.00;;;;;;;;;;4977358;28;20038;-70
2021/07/20 07:44:59;;;;;;;13.25;6.18;;;;;;;;;;4975260;28;20030;-70
2021/07/20 07:47:26;;;;;;;12.38;4.90;;;;;;;;;;4978128;28;20048;-70
2021/07/20 07:49:52;;;;;;;10.88;4.60;;;;;;;;;;4978736;28;20023;-70
2021/07/20 07:52:18;;;;;;;11.93;4.90;;;;;;;;;;4977278;28;20125;-70
2021/07/20 07:54:45;;;;;;;10.68;4.57;;;;;;;;;;4974985;28;20069;-70
2021/07/20 07:57:12;;;;;;;9.32;4.28;;;;;;;;;;4976843;28;20113;-71
2021/07/20 07:59:42;;;;;;;16.42;4.65;;;;;;;;;;4974769;28;20135;-70
2021/07/20 08:02:09;;;;;;;10.82;3.90;;;;;;;;;;4976993;28;20031;-70
2021/07/20 08:04:36;;;;;;;13.00;4.85;;;;;;;;;;4976995;28;20077;-70
2021/07/20 08:07:03;;;;;;;11.65;4.95;;;;;;;;;;4969622;28;20569;-70
2021/07/20 08:09:30;;;;;;;14.63;5.03;;;;;;;;;;4979808;28;20110;-70
2021/07/20 08:11:59;;;;;;;11.07;4.95;;;;;;;;;;4978687;28;20035;-70
2021/07/20 08:14:25;;;;;;;12.40;5.35;;;;;;;;;;4975729;28;20117;-70
2021/07/20 08:16:53;;;;;;;13.35;4.70;;;;;;;;;;4976055;28;20458;-70
2021/07/20 08:19:20;;;;;;;10.52;4.63;;;;;;;;;;4971212;28;20038;-70
2021/07/20 08:21:46;;;;;;;13.43;4.43;;;;;;;;;;4976542;28;20096;-70
2021/07/20 08:24:14;;;;;;;12.45;5.28;;;;;;;;;;4978149;28;20015;-70
2021/07/20 08:26:52;;;;;;;13.55;5.03;;;;;;;;;;4974523;28;20038;-70
2021/07/20 08:29:19;;;;;;;10.48;4.80;;;;;;;;;;4976834;28;20034;-70
2021/07/20 08:31:49;;;;;;;12.18;4.35;;;;;;;;;;4975116;28;20040;-70
2021/07/20 08:34:15;;;;;;;13.52;4.78;;;;;;;;;;4972527;28;20355;-70
2021/07/20 08:36:42;;;;;;;10.80;4.30;;;;;;;;;;4976769;28;20554;-70
2021/07/20 08:39:11;;;;;;;10.70;4.07;;;;;;;;;;4973148;28;20473;-70
2021/07/20 08:41:58;;;;;;;11.15;5.20;;;;;;;;;;4974285;28;20425;-70
2021/07/20 08:44:35;;;;;;;13.45;4.75;;;;;;;;;;4974874;28;20027;-70
2021/07/20 08:47:09;;;;;;;13.45;4.95;;;;;;;;;;4978808;28;20042;-70
2021/07/20 08:49:57;;;;;;;10.93;4.78;;;;;;;;;;4972894;28;20022;-70
2021/07/20 08:52:43;;;;;;;13.30;4.13;;;;;;;;;;4976552;28;20037;-70
2021/07/20 08:55:11;;;;;;;10.93;4.82;;;;;;;;;;4976315;28;20035;-70
2021/07/20 08:57:45;;;;;;;11.10;4.72;;;;;;;;;;4975552;28;20544;-70
2021/07/20 09:00:12;;;;;;;9.90;4.10;;;;;;;;;;4977053;28;20413;-70
2021/07/20 09:02:48;;;;;;;12.25;5.10;;;;;;;;;;4976101;28;20475;-70
2021/07/20 09:05:26;;;;;;;12.15;4.63;;;;;;;;;;4982993;28;20332;-70
2021/07/20 09:07:56;;;;;;;13.18;4.78;;;;;;;;;;4980158;28;21290;-70
2021/07/20 09:10:23;;;;;;;10.02;4.15;;;;;;;;;;4978049;28;20034;-70
2021/07/20 09:12:52;;;;;;;10.75;4.55;;;;;;;;;;4975120;28;20031;-70
2021/07/20 09:15:25;;;;;;;10.73;5.07;;;;;;;;;;4975727;28;20062;-70
2021/07/20 09:18:09;;;;;;;9.20;4.10;;;;;;;;;;4975506;28;20031;-70
2021/07/20 09:20:37;;;;;;;11.18;4.53;;;;;;;;;;4977568;28;20171;-70
2021/07/20 09:23:06;;;;;;;9.90;4.60;;;;;;;;;;4975576;28;20441;-70
2021/07/20 09:25:52;;;;;;;12.00;4.60;;;;;;;;;;4971919;28;20280;-71
2021/07/20 09:28:21;;;;;;;10.98;4.35;;;;;;;;;;4947007;28;20034;-70
2021/07/20 09:30:49;;;;;;;10.55;4.25;;;;;;;;;;4975591;28;20035;-70
2021/07/20 09:33:15;;;;;;;11.00;4.68;;;;;;;;;;4973349;28;20031;-70
2021/07/20 09:35:46;;;;;;;10.52;5.05;;;;;;;;;;4974160;28;20172;-70
2021/07/20 09:38:18;;;;;;;10.63;4.70;;;;;;;;;;4971378;28;20522;-70
2021/07/20 09:40:49;;;;;;;10.73;4.68;;;;;;;;;;4976429;28;20031;-70
2021/07/20 09:43:25;;;;;;;10.05;4.78;;;;;;;;;;4972163;28;20041;-70
2021/07/20 09:45:55;;;;;;;11.10;4.65;;;;;;;;;;4974783;28;20390;-70
2021/07/20 09:48:30;;;;;;;12.20;5.45;;;;;;;;;;4974788;28;20064;-70
2021/07/20 09:51:17;;;;;;;10.05;4.55;;;;;;;;;;4973557;28;20046;-70
2021/07/20 09:54:02;;;;;;;10.43;4.57;;;;;;;;;;4975095;28;20034;-70
2021/07/20 09:56:40;;;;;;;10.82;4.75;;;;;;;;;;4976270;28;20050;-70
2021/07/20 09:59:18;;;;;;;9.35;4.55;;;;;;;;;;4972128;28;20049;-70
2021/07/20 10:01:51;;;;;;;12.48;5.03;;;;;;;;;;4974327;28;20113;-70
2021/07/20 10:04:36;;;;;;;11.32;4.43;;;;;;;;;;4974910;28;20038;-70
2021/07/20 10:07:03;;;;;;;12.02;5.03;;;;;;;;;;4974471;28;20399;-70
2021/07/20 10:09:33;;;;;;;10.85;4.75;;;;;;;;;;4975392;28;20053;-70
2021/07/20 10:12:23;;;;;;;10.40;5.28;;;;;;;;;;4980666;28;20478;-69
2021/07/20 10:14:49;;;;;;;;;;;;;;;;;;4953602;28;20042;-70
2021/07/20 10:17:15;;;;;;;10.25;5.15;;;;;;;;;;4979848;28;20254;-70
2021/07/20 10:19:46;;;;;;;13.20;5.47;;;;;;;;;;4977161;28;20489;-69
2021/07/20 10:22:14;;;;;;;13.30;5.07;;;;;;;;;;4972411;28;20038;-69
2021/07/20 10:24:44;;;;;;;10.00;5.00;;;;;;;;;;4970654;28;20058;-69
2021/07/20 10:27:20;;;;;;;12.45;4.80;;;;;;;;;;4981613;28;20033;-70
2021/07/20 10:29:50;;;;;;;12.77;5.35;;;;;;;;;;4976188;28;20034;-69
2021/07/20 10:32:24;;;;;;;15.13;5.03;;;;;;;;;;4987427;28;20038;-70
2021/07/20 10:34:55;;;;;;;11.13;4.72;;;;;;;;;;4982583;28;20399;-70
2021/07/20 10:37:23;;;;;;;11.18;4.72;;;;;;;;;;4978035;28;20049;-70
2021/07/20 10:39:52;;;;;;;11.35;4.97;;;;;;;;;;4976066;28;20030;-69
2021/07/20 10:42:36;;;;;;;14.80;5.00;;;;;;;;;;4982143;28;20033;-69
2021/07/20 10:45:06;;;;;;;12.18;4.63;;;;;;;;;;4984640;28;20033;-69
2021/07/20 10:47:37;;;;;;;14.95;5.32;;;;;;;;;;4984729;28;20023;-69
2021/07/20 10:50:03;;;;;;;10.13;4.50;;;;;;;;;;4984685;28;20054;-69
2021/07/20 10:52:52;;;;;;;9.68;4.50;;;;;;;;;;4980838;28;20092;-70
2021/07/20 10:55:22;;;;;;;11.57;4.90;;;;;;;;;;4985560;28;20129;-70
2021/07/20 10:57:59;;;;;;;14.07;5.63;;;;;;;;;;4979129;28;20030;-70
2021/07/20 11:00:29;;;;;;;11.57;4.88;;;;;;;;;;4982678;28;20033;-70
2021/07/20 11:02:59;;;;;;;12.15;5.10;;;;;;;;;;4973049;28;20622;-69
2021/07/20 11:05:26;;;;;;;12.02;5.28;;;;;;;;;;4985295;28;20033;-70
2021/07/20 11:08:00;;;;;;;10.45;4.70;;;;;;;;;;4986632;28;20074;-70
2021/07/20 11:10:33;;;;;;;11.27;4.50;;;;;;;;;;4982517;28;20023;-70
2021/07/20 11:13:03;;;;;;;10.40;4.68;;;;;;;;;;4976585;28;20029;-70
2021/07/20 11:15:30;;;;;;;10.93;5.15;;;;;;;;;;4985618;28;20065;-70
2021/07/20 11:17:59;;;;;;;10.55;4.72;;;;;;;;;;4976077;28;20029;-70
2021/07/20 11:20:25;;;;;;;10.82;4.35;;;;;;;;;;4977170;28;20539;-69
2021/07/20 11:22:53;;;;;;;13.52;5.00;;;;;;;;;;4978081;28;20053;-70
2021/07/20 11:25:20;;;;;;;12.98;5.47;;;;;;;;;;4979723;28;20123;-69
2021/07/20 11:27:46;;;;;;;14.23;5.45;;;;;;;;;;4982368;28;20114;-70
2021/07/20 11:30:13;;;;;;;11.70;5.10;;;;;;;;;;4976556;28;20462;-69
2021/07/20 11:32:41;;;;;;;11.23;5.35;;;;;;;;;;4977438;28;20050;-69
2021/07/20 11:35:12;;;;;;;10.48;5.25;;;;;;;;;;4979606;28;20035;-69
2021/07/20 11:37:42;;;;;;;12.05;5.70;;;;;;;;;;4974654;28;20031;-70
2021/07/20 11:40:11;;;;;;;12.65;5.07;;;;;;;;;;4983361;28;20030;-69
2021/07/20 11:42:55;;;;;;;11.10;5.38;;;;;;;;;;4980176;28;20486;-69
2021/07/20 11:45:22;;;;;;;11.85;5.30;;;;;;;;;;4978603;28;20050;-69
2021/07/20 11:47:53;;;;;;;11.95;5.30;;;;;;;;;;4977211;28;20072;-70
2021/07/20 11:50:23;;;;;;;11.18;4.93;;;;;;;;;;4984617;28;20029;-69
2021/07/20 11:53:08;;;;;;;11.05;4.68;;;;;;;;;;4976647;28;20108;-69
2021/07/20 11:56:00;;;;;;;10.02;4.97;;;;;;;;;;4977869;28;20070;-69
2021/07/20 11:58:50;;;;;;;10.88;5.30;;;;;;;;;;5005742;28;20037;-69
2021/07/20 12:01:35;;;;;;;9.98;4.82;;;;;;;;;;5023303;28;20025;-70
2021/07/20 12:04:19;;;;;;;11.77;5.05;;;;;;;;;;5017629;28;20042;-70
2021/07/20 12:07:01;;;;;;;11.68;4.85;;;;;;;;;;5017871;28;20148;-69
2021/07/20 12:09:45;;;;;;;12.25;4.80;;;;;;;;;;5026681;28;20101;-69
2021/07/20 12:12:11;;;;;;;10.30;4.75;;;;;;;;;;5022499;28;20057;-69
2021/07/20 12:14:37;;;;;;;10.45;4.82;;;;;;;;;;5026395;28;20080;-70
2021/07/20 12:17:04;;;;;;;10.25;4.82;;;;;;;;;;5023061;28;20077;-70
2021/07/20 12:19:35;;;;;;;9.55;4.50;;;;;;;;;;5021797;28;20049;-70
2021/07/20 12:22:04;;;;;;;9.32;4.07;;;;;;;;;;5017732;28;20049;-70
2021/07/20 12:24:30;;;;;;;9.90;4.25;;;;;;;;;;5016955;28;20053;-70
2021/07/20 12:26:56;;;;;;;10.52;4.80;;;;;;;;;;5017551;28;20461;-70
2021/07/20 12:29:22;;;;;;;12.45;4.20;;;;;;;;;;5020124;28;20041;-70
2021/07/20 12:31:49;;;;;;;9.85;3.97;;;;;;;;;;5013482;28;20072;-70
2021/07/20 12:34:16;;;;;;;10.65;4.28;;;;;;;;;;5020336;28;20022;-70
2021/07/20 12:36:43;;;;;;;9.73;4.35;;;;;;;;;;4977442;28;20047;-70
2021/07/20 12:39:09;;;;;;;10.60;4.72;;;;;;;;;;4976547;28;20030;-70
2021/07/20 12:41:36;;;;;;;9.18;4.00;;;;;;;;;;4980767;28;20493;-70
2021/07/20 12:44:03;;;;;;;10.25;4.50;;;;;;;;;;4977292;28;20087;-69
2021/07/20 12:46:30;;;;;;;11.48;4.25;;;;;;;;;;4980388;28;20435;-70
2021/07/20 12:48:57;;;;;;;8.80;4.20;;;;;;;;;;4972737;28;20080;-70
2021/07/20 12:51:24;;;;;;;9.98;4.18;;;;;;;;;;4975172;28;20042;-70
2021/07/20 12:53:53;;;;;;;10.05;4.40;;;;;;;;;;4980386;28;20030;-70
2021/07/20 12:56:29;;;;;;;11.82;3.95;;;;;;;;;;4987224;28;20130;-70
2021/07/20 12:59:00;;;;;;;9.18;4.18;;;;;;;;;;4971646;28;20080;-70
2021/07/20 13:01:27;;;;;;;10.73;4.05;;;;;;;;;;4974761;28;20036;-70
2021/07/20 13:03:53;;;;;;;8.80;3.88;;;;;;;;;;4974023;28;20034;-70
2021/07/20 13:06:19;;;;;;;12.00;4.30;;;;;;;;;;4969829;28;20055;-70
2021/07/20 13:08:48;;;;;;;10.93;4.50;;;;;;;;;;4984726;28;20026;-71
2021/07/20 13:11:14;;;;;;;10.07;3.97;;;;;;;;;;4979061;28;20031;-70
2021/07/20 13:13:40;;;;;;;10.30;3.65;;;;;;;;;;4979276;28;20379;-70
2021/07/20 13:16:07;;;;;;;9.80;3.63;;;;;;;;;;4976867;28;20496;-71
2021/07/20 13:18:35;;;;;;;9.57;3.90;;;;;;;;;;4969995;28;20050;-70
2021/07/20 13:21:01;;;;;;;8.05;3.30;;;;;;;;;;4970308;28;20038;-70
2021/07/20 13:23:31;;;;;;;8.02;3.28;;;;;;;;;;4973615;28;20034;-70
2021/07/20 13:25:57;;;;;;;8.52;3.50;;;;;;;;;;4977095;28;20038;-70
2021/07/20 13:28:27;;;;;;;7.78;3.03;;;;;;;;;;4979373;28;20050;-69
2021/07/20 13:30:53;;;;;;;;;;;;;;;;;;4977484;28;20147;-70
2021/07/20 13:33:19;;;;;;;9.50;3.58;;;;;;;;;;4983858;28;19937;-70
2021/07/20 13:35:47;;;;;;;9.27;3.50;;;;;;;;;;4978805;28;20046;-69
2021/07/20 13:38:13;;;;;;;8.40;3.35;;;;;;;;;;4976580;28;20552;-70
2021/07/20 13:40:41;;;;;;;11.98;3.60;;;;;;;;;;4974510;28;20037;-69
2021/07/20 13:43:07;;;;;;;9.00;3.83;;;;;;;;;;4975372;28;20079;-71
2021/07/20 13:45:33;;;;;;;10.52;3.75;;;;;;;;;;4972219;28;20026;-70
2021/07/20 13:48:00;;;;;;;8.02;3.60;;;;;;;;;;4979416;28;20035;-71
2021/07/20 13:50:28;;;;;;;9.52;3.45;;;;;;;;;;4973715;28;20035;-71
2021/07/20 13:52:56;;;;;;;9.90;3.63;;;;;;;;;;4975632;28;20033;-71
2021/07/20 13:55:28;;;;;;;7.43;2.97;;;;;;;;;;4979736;28;20077;-71
2021/07/20 13:57:55;;;;;;;9.27;3.42;;;;;;;;;;4975187;28;20037;-71
2021/07/20 14:00:21;;;;;;;9.13;2.90;;;;;;;;;;4977222;28;20037;-71
2021/07/20 14:02:47;;;;;;;8.68;3.72;;;;;;;;;;4980679;28;20176;-71
2021/07/20 14:05:13;;;;;;;7.63;3.22;;;;;;;;;;4979990;28;20521;-72
2021/07/20 14:07:40;;;;;;;8.70;3.28;;;;;;;;;;4987842;28;20070;-70
2021/07/20 14:10:06;;;;;;;9.07;3.38;;;;;;;;;;4982274;28;20450;-70
2021/07/20 14:12:33;;;;;;;10.18;2.95;;;;;;;;;;4973206;28;20505;-71
2021/07/20 14:15:00;;;;;;;8.07;3.28;;;;;;;;;;4970055;28;20502;-70
2021/07/20 14:17:28;;;;;;;8.40;3.55;;;;;;;;;;4984680;28;20071;-71
2021/07/20 14:19:54;;;;;;;7.97;3.03;;;;;;;;;;4976890;28;20042;-71
2021/07/20 14:22:24;;;;;;;8.88;3.40;;;;;;;;;;4985394;28;20660;-71
2021/07/20 14:24:51;;;;;;;11.23;3.20;;;;;;;;;;4969550;28;20027;-71
2021/07/20 14:27:18;;;;;;;9.18;3.42;;;;;;;;;;4978572;28;20007;-71
2021/07/20 14:29:47;;;;;;;9.30;3.20;;;;;;;;;;4983419;28;20039;-71
2021/07/20 14:32:20;;;;;;;8.40;3.67;;;;;;;;;;4982004;28;20034;-71
2021/07/20 14:34:54;;;;;;;9.52;3.47;;;;;;;;;;4986980;28;20037;-70
2021/07/20 14:37:39;;;;;;;9.57;3.28;;;;;;;;;;4985085;28;20035;-71
2021/07/20 14:40:29;;;;;;;7.00;2.80;;;;;;;;;;4978213;28;20036;-71